Time;durP1;ratioP1;P1;durP2;ratioP2;P2;SDS_P1;SDS_P2;PMS_P1;PMS_P2;Temp;Humidity;BMP_temperature;BMP_pressure;BME280_temperature;BME280_humidity;BME280_pressure;Samples;Min_cycle;Max_cycle;Signal;HPM_P1;HPM_P2
2022/08/21 00:00:45;;;;;;;14.20;10.68;;;;;;;19.55;100.00;98947.44;8343264;28;20103;-73
2022/08/21 00:04:46;;;;;;;15.68;10.95;;;;;;;19.53;100.00;98955.25;8325372;28;20054;-73
2022/08/21 00:08:47;;;;;;;15.13;11.52;;;;;;;19.51;100.00;98960.28;8327392;28;20087;-73
2022/08/21 00:12:51;;;;;;;16.10;10.15;;;;;;;19.50;100.00;98961.47;8290204;28;20048;-73
2022/08/21 00:16:52;;;;;;;19.45;11.10;;;;;;;19.54;100.00;98967.00;8313589;28;20041;-73
2022/08/21 00:20:53;;;;;;;15.93;10.35;;;;;;;19.54;100.00;98961.50;8312271;28;20045;-72
2022/08/21 00:24:54;;;;;;;12.32;10.30;;;;;;;19.54;100.00;98967.78;8344777;28;20567;-72
2022/08/21 00:28:55;;;;;;;13.20;10.27;;;;;;;19.54;100.00;98961.50;8343275;28;20091;-73
2022/08/21 00:32:57;;;;;;;11.35;9.80;;;;;;;19.49;100.00;98959.88;8349135;28;20862;-73
2022/08/21 00:36:58;;;;;;;13.25;9.88;;;;;;;19.47;100.00;98951.25;8307102;28;20045;-73
2022/08/21 00:41:04;;;;;;;14.82;9.70;;;;;;;19.46;100.00;98944.19;8295349;28;20176;-72
2022/08/21 00:45:07;;;;;;;11.18;9.98;;;;;;;19.45;100.00;98931.66;8336881;28;20185;-72
2022/08/21 00:49:09;;;;;;;12.52;10.30;;;;;;;19.46;100.00;98933.22;8291624;28;20102;-73
2022/08/21 00:53:13;;;;;;;10.90;9.80;;;;;;;19.38;100.00;98931.53;8350231;28;20114;-72
2022/08/21 00:57:22;;;;;;;13.13;10.10;;;;;;;19.38;100.00;98920.59;8344558;28;20057;-73
2022/08/21 01:01:23;;;;;;;11.18;9.98;;;;;;;19.40;100.00;98929.22;8334577;28;20045;-72
2022/08/21 01:05:24;;;;;;;11.05;9.82;;;;;;;19.37;100.00;98925.25;8340696;28;20053;-73
2022/08/21 01:09:26;;;;;;;10.10;8.68;;;;;;;19.39;100.00;98922.16;8340867;28;20102;-74
2022/08/21 01:13:33;;;;;;;11.57;9.05;;;;;;;19.36;100.00;98929.16;8338643;28;20049;-73
2022/08/21 01:17:35;;;;;;;11.30;8.05;;;;;;;19.38;100.00;98931.53;8328704;28;20041;-72
2022/08/21 01:21:36;;;;;;;11.13;8.20;;;;;;;19.34;100.00;98922.50;8321081;28;20501;-72
2022/08/21 01:25:37;;;;;;;10.15;8.45;;;;;;;19.31;100.00;98925.94;8338647;28;20049;-72
2022/08/21 01:29:43;;;;;;;9.35;8.32;;;;;;;19.33;100.00;98912.69;8344712;28;20049;-72
2022/08/21 01:33:44;;;;;;;10.05;8.25;;;;;;;19.31;100.00;98904.06;8340743;28;20080;-72
2022/08/21 01:37:45;;;;;;;11.07;7.90;;;;;;;19.30;100.00;98907.94;8355341;28;20049;-72
2022/08/21 01:41:47;;;;;;;10.50;8.93;;;;;;;19.24;100.00;98898.50;8333193;28;20507;-73
2022/08/21 01:45:47;;;;;;;10.43;8.60;;;;;;;19.22;100.00;98884.38;8345500;28;20048;-73
2022/08/21 01:49:49;;;;;;;11.35;8.88;;;;;;;19.21;100.00;98867.16;8336527;28;20501;-72
2022/08/21 01:53:51;;;;;;;12.00;9.13;;;;;;;19.13;100.00;98853.75;8340828;28;20110;-72
2022/08/21 01:57:52;;;;;;;15.20;8.75;;;;;;;19.11;100.00;98845.13;8310730;28;20049;-72
2022/08/21 02:01:59;;;;;;;8.95;7.72;;;;;;;19.07;100.00;98849.78;8347072;28;20136;-72
2022/08/21 02:06:00;;;;;;;10.10;7.85;;;;;;;18.98;100.00;98842.63;8340417;28;20054;-72
2022/08/21 02:10:01;;;;;;;11.73;7.07;;;;;;;18.99;100.00;98838.72;8355013;28;20175;-72
2022/08/21 02:14:02;;;;;;;9.32;6.60;;;;;;;18.99;100.00;98844.19;8334125;28;20551;-72
2022/08/21 02:18:05;;;;;;;7.60;6.07;;;;;;;19.01;100.00;98856.72;8356244;28;20033;-71
2022/08/21 02:22:09;;;;;;;6.65;5.53;;;;;;;18.92;100.00;98860.53;8350009;28;20045;-73
2022/08/21 02:26:10;;;;;;;7.85;5.57;;;;;;;18.89;100.00;98855.78;8331459;28;20041;-73
2022/08/21 02:30:14;;;;;;;9.68;5.55;;;;;;;18.83;100.00;98857.25;8342627;28;20144;-73
2022/08/21 02:34:15;;;;;;;9.82;4.65;;;;;;;18.73;100.00;98841.47;8340716;28;20501;-72
2022/08/21 02:38:20;;;;;;;5.63;5.07;;;;;;;18.67;100.00;98837.47;8336273;28;20047;-72
2022/08/21 02:42:21;;;;;;;6.85;5.00;;;;;;;18.59;100.00;98841.28;8357312;28;20248;-72
2022/08/21 02:46:23;;;;;;;8.93;5.72;;;;;;;18.50;100.00;98854.41;8359385;28;20438;-73
2022/08/21 02:50:36;;;;;;;8.57;5.82;;;;;;;18.47;100.00;98860.59;8351154;28;20087;-72
2022/08/21 02:54:37;;;;;;;9.88;5.97;;;;;;;18.38;100.00;98857.31;8319101;28;20049;-73
2022/08/21 03:13:19;;;;;;;8.85;5.90;;;;;;;18.50;100.00;98854.41;8452474;27;20971;-71
2022/08/21 03:17:20;;;;;;;11.73;5.70;;;;;;;18.41;100.00;98851.09;8387026;28;20056;-71
2022/08/21 03:21:20;;;;;;;9.35;5.88;;;;;;;18.40;100.00;98865.97;8423812;28;20048;-71
2022/08/21 03:25:23;;;;;;;7.50;6.03;;;;;;;18.39;100.00;98864.38;8419698;28;20044;-70
2022/08/21 03:29:24;;;;;;;8.02;6.50;;;;;;;18.40;100.00;98876.91;8384096;28;20135;-70
2022/08/21 03:33:25;;;;;;;7.60;5.93;;;;;;;18.42;100.00;98874.56;8419046;28;20040;-70
2022/08/21 03:37:26;;;;;;;6.03;5.43;;;;;;;18.37;100.00;98883.06;8421361;28;20133;-70
2022/08/21 03:41:27;;;;;;;5.88;5.28;;;;;;;18.29;100.00;98884.13;8420209;28;20041;-70
2022/08/21 03:59:58;;;;;;;5.50;4.30;;;;;;;18.17;100.00;98884.28;8519407;27;20476;-73
2022/08/21 04:03:59;;;;;;;4.78;4.22;;;;;;;18.12;100.00;98872.53;8490653;27;20052;-72
2022/08/21 04:08:03;;;;;;;4.97;4.28;;;;;;;18.10;100.00;98885.75;8482347;27;20118;-73
2022/08/21 04:12:05;;;;;;;5.63;4.80;;;;;;;18.02;100.00;98900.44;8481915;27;20044;-72
2022/08/21 05:53:36;;;;;;;5.05;3.00;;;;;;;17.44;100.00;98948.03;8472887;27;20428;-71
2022/08/21 05:57:40;;;;;;;3.97;3.15;;;;;;;17.45;100.00;98952.34;8459674;27;20047;-70
2022/08/21 06:01:41;;;;;;;3.78;2.80;;;;;;;17.46;100.00;98937.50;8452225;28;20054;-71
2022/08/21 06:05:43;;;;;;;3.10;2.80;;;;;;;17.48;100.00;98937.97;8459389;27;20057;-71
2022/08/21 06:09:43;;;;;;;2.97;2.70;;;;;;;17.49;100.00;98936.81;8458585;27;20039;-71
2022/08/21 06:13:44;;;;;;;3.92;3.13;;;;;;;17.49;100.00;98942.28;8459134;27;20519;-71
2022/08/21 06:17:45;;;;;;;4.20;2.95;;;;;;;17.51;100.00;98957.13;8459432;27;20142;-71
2022/08/21 06:21:46;;;;;;;7.38;2.88;;;;;;;17.50;100.00;98965.72;8458927;28;20411;-71
2022/08/21 06:25:56;;;;;;;5.03;2.95;;;;;;;17.49;100.00;98975.03;8465266;28;20479;-71
2022/08/21 06:29:57;;;;;;;3.22;2.70;;;;;;;17.49;100.00;98975.84;8458718;28;20100;-71
2022/08/21 06:33:58;;;;;;;4.10;2.63;;;;;;;17.49;100.00;98977.78;8451250;28;20055;-72
2022/08/21 06:37:59;;;;;;;2.78;2.47;;;;;;;17.44;100.00;98988.97;8457232;28;20547;-71
2022/08/21 06:42:00;;;;;;;10.98;3.22;;;;;;;17.42;100.00;99007.63;8456698;28;20044;-71
2022/08/21 06:46:04;;;;;;;7.60;2.60;;;;;;;17.35;100.00;98996.53;8470155;27;20047;-71
2022/08/21 06:50:07;;;;;;;12.35;2.78;;;;;;;17.33;100.00;99004.31;8455495;28;20048;-71
2022/08/21 06:54:10;;;;;;;6.35;2.70;;;;;;;17.26;100.00;98994.81;8456409;28;20395;-72
2022/08/21 07:03:31;;;;;;;4.70;2.45;;;;;;;17.24;100.00;98985.38;8442822;28;20520;-71
2022/08/21 07:07:55;;;;;;;2.40;2.17;;;;;;;17.24;100.00;98980.72;8410782;28;20040;-71
2022/08/21 07:11:56;;;;;;;4.18;2.20;;;;;;;17.24;100.00;98986.19;8427307;28;20110;-71
2022/08/21 07:15:57;;;;;;;6.45;3.45;;;;;;;17.21;100.00;98992.34;8434731;28;20131;-71
2022/08/21 07:19:58;;;;;;;7.63;4.30;;;;;;;17.08;100.00;98999.06;8395189;28;20074;-71
2022/08/21 07:23:59;;;;;;;8.45;5.30;;;;;;;16.91;100.00;99004.91;8432900;28;20051;-72
2022/08/21 07:28:01;;;;;;;10.68;6.65;;;;;;;16.84;100.00;99004.72;8434654;28;20511;-71
2022/08/21 07:32:02;;;;;;;8.52;5.43;;;;;;;16.82;100.00;99007.00;8434975;28;20086;-71
2022/08/21 07:36:03;;;;;;;9.32;5.47;;;;;;;16.75;100.00;98995.94;8434659;28;20048;-71
2022/08/21 07:40:05;;;;;;;11.02;5.40;;;;;;;16.66;100.00;99017.09;8433354;28;20037;-71
2022/08/21 07:44:06;;;;;;;8.05;6.22;;;;;;;16.66;100.00;99041.63;8437311;28;20146;-71
2022/08/21 07:48:07;;;;;;;10.95;6.10;;;;;;;16.62;100.00;99038.03;8396108;28;20109;-72
2022/08/21 07:52:08;;;;;;;12.40;6.68;;;;;;;16.46;100.00;99036.06;8432627;28;20079;-71
2022/08/21 07:56:10;;;;;;;14.70;6.63;;;;;;;16.45;100.00;99037.19;8434386;28;20047;-71
2022/08/21 08:00:16;;;;;;;9.30;6.30;;;;;;;16.46;100.00;99044.22;8432895;28;20105;-71
2022/08/21 08:04:17;;;;;;;9.75;5.88;;;;;;;16.43;100.00;99055.84;8435199;28;20039;-70
2022/08/21 08:08:18;;;;;;;12.82;5.13;;;;;;;16.40;100.00;99061.97;8432202;28;20039;-70
2022/08/21 08:13:00;;;;;;;7.20;4.63;;;;;;;16.24;100.00;99069.31;8419292;28;20502;-71
2022/08/21 08:17:03;;;;;;;9.88;4.47;;;;;;;16.15;100.00;99071.38;8430771;28;20052;-72
2022/08/21 08:21:05;;;;;;;13.75;4.60;;;;;;;16.08;100.00;99071.19;8427114;28;20092;-73
2022/08/21 08:25:08;;;;;;;13.43;4.50;;;;;;;16.06;100.00;99065.31;8432629;28;20051;-72
2022/08/21 08:29:15;;;;;;;7.78;4.00;;;;;;;15.95;100.00;99077.81;8430474;28;20060;-73
2022/08/21 08:33:16;;;;;;;9.05;3.75;;;;;;;15.91;100.00;99087.81;8432489;28;20071;-73
2022/08/21 08:37:19;;;;;;;8.70;3.40;;;;;;;15.81;100.00;99085.56;8430631;28;20044;-73
2022/08/21 08:41:22;;;;;;;8.50;3.42;;;;;;;15.78;100.00;99078.06;8430622;28;20058;-73
2022/08/21 08:45:25;;;;;;;4.88;2.90;;;;;;;15.71;100.00;99061.50;8429248;28;20404;-71
2022/08/21 08:49:56;;;;;;;6.18;2.90;;;;;;;15.68;100.00;99035.00;8411312;28;20074;-73
2022/08/21 08:54:03;;;;;;;7.53;3.20;;;;;;;15.64;100.00;99013.13;8315888;28;20049;-73
2022/08/21 08:58:28;;;;;;;7.65;3.08;;;;;;;15.63;100.00;99017.75;8309451;28;20144;-72
2022/08/21 09:02:33;;;;;;;5.25;3.00;;;;;;;15.69;100.00;99025.69;8259860;28;20049;-74
2022/08/21 09:07:16;;;;;;;3.42;2.72;;;;;;;15.70;100.00;99021.84;8332556;28;20049;-74
2022/08/21 09:11:47;;;;;;;8.90;2.85;;;;;;;15.75;100.00;99033.28;8191534;28;20114;-74
2022/08/21 09:16:03;;;;;;;3.05;2.53;;;;;;;15.81;100.00;99039.28;8112754;29;20619;-74
2022/08/21 09:20:13;;;;;;;3.72;2.63;;;;;;;15.83;100.00;99026.09;8125336;29;20052;-74
2022/08/21 09:24:33;;;;;;;4.82;2.75;;;;;;;15.96;100.00;99024.94;8090749;29;20052;-74
2022/08/21 09:28:35;;;;;;;5.35;2.45;;;;;;;15.92;100.00;99029.47;8156008;28;20101;-74
2022/08/21 09:32:41;;;;;;;8.77;2.75;;;;;;;15.98;100.00;99033.53;8198555;28;20525;-74
2022/08/21 09:36:46;;;;;;;5.75;2.90;;;;;;;16.07;100.00;99036.94;8226242;28;20046;-74
2022/08/21 09:40:57;;;;;;;4.03;2.80;;;;;;;16.12;100.00;99033.97;8230261;28;20299;-75
2022/08/21 09:45:16;;;;;;;5.28;2.72;;;;;;;16.07;100.00;99036.94;8232361;28;20151;-74
2022/08/21 09:49:27;;;;;;;4.20;2.20;;;;;;;16.05;100.00;99039.19;8321329;28;20045;-74
2022/08/21 09:53:30;;;;;;;6.00;2.60;;;;;;;16.07;100.00;99058.72;8443875;28;20051;-75
2022/08/21 09:57:46;;;;;;;5.18;2.75;;;;;;;16.01;100.00;99043.75;8451122;28;20383;-74
2022/08/21 10:01:50;;;;;;;3.83;2.70;;;;;;;15.97;100.00;99045.56;8428029;28;20064;-74
2022/08/21 10:05:51;;;;;;;4.10;2.70;;;;;;;16.00;100.00;99047.63;8427762;28;20071;-73
2022/08/21 10:10:15;;;;;;;5.40;3.00;;;;;;;16.00;100.00;99063.94;8409354;28;20083;-74
2022/08/21 10:14:35;;;;;;;3.38;2.55;;;;;;;16.01;100.00;99065.53;8413270;28;20073;-74
2022/08/21 10:18:58;;;;;;;3.95;2.80;;;;;;;15.95;100.00;99066.91;8426281;28;20189;-75
2022/08/21 10:23:11;;;;;;;3.67;2.80;;;;;;;15.96;100.00;99063.06;8406093;28;20113;-73
2022/08/21 10:27:22;;;;;;;7.50;2.78;;;;;;;15.93;100.00;99063.75;8426247;28;20052;-74
2022/08/21 10:31:29;;;;;;;6.20;3.08;;;;;;;15.83;100.00;99064.22;8425927;28;20043;-74
2022/08/21 10:35:41;;;;;;;5.70;3.45;;;;;;;15.82;100.00;99062.63;8417705;28;20051;-73
2022/08/21 10:40:22;;;;;;;5.13;3.13;;;;;;;15.83;100.00;99053.31;8413720;28;20083;-74
2022/08/21 10:44:37;;;;;;;4.35;2.90;;;;;;;15.78;100.00;99048.13;8429217;28;20491;-74
2022/08/21 10:48:53;;;;;;;11.20;3.50;;;;;;;15.81;100.00;99039.28;8432934;28;20044;-74
2022/08/21 10:53:22;;;;;;;4.97;3.20;;;;;;;15.78;100.00;99045.41;8433358;28;20052;-75
2022/08/21 10:57:40;;;;;;;8.07;3.47;;;;;;;15.85;100.00;99051.06;8432965;28;20126;-73
2022/08/21 11:01:51;;;;;;;8.80;3.97;;;;;;;15.91;100.00;99049.69;8430385;28;20411;-73
2022/08/21 11:05:54;;;;;;;7.90;3.47;;;;;;;15.81;100.00;99061.06;8433886;28;20035;-72
2022/08/21 11:09:58;;;;;;;12.40;3.88;;;;;;;15.80;100.00;99070.38;8431877;28;20127;-73
2022/08/21 11:14:04;;;;;;;7.70;3.75;;;;;;;15.83;100.00;99069.66;8414070;28;20048;-74
2022/08/21 11:18:11;;;;;;;8.07;4.45;;;;;;;15.81;100.00;99061.06;8432483;28;20395;-73
2022/08/21 11:22:28;;;;;;;11.52;3.90;;;;;;;15.84;100.00;99055.72;8432568;28;20044;-73
2022/08/21 11:26:39;;;;;;;5.65;3.70;;;;;;;15.85;100.00;99061.97;8394963;28;20048;-73
2022/08/21 11:31:03;;;;;;;10.80;3.95;;;;;;;15.78;100.00;99059.00;8394555;28;20123;-73
2022/08/21 11:35:13;;;;;;;7.22;4.05;;;;;;;15.71;100.00;99050.63;8327342;28;20060;-73
2022/08/21 11:39:22;;;;;;;8.73;3.97;;;;;;;15.79;100.00;99052.44;8295818;28;20052;-73
2022/08/21 11:43:32;;;;;;;7.70;4.20;;;;;;;15.82;100.00;99062.63;8295674;28;20046;-73
2022/08/21 11:48:06;;;;;;;8.52;3.92;;;;;;;15.79;100.00;99063.31;8295818;28;20426;-74
2022/08/21 11:52:31;;;;;;;11.45;4.43;;;;;;;15.77;100.00;99065.59;8262150;28;20054;-73
2022/08/21 11:56:48;;;;;;;11.73;5.25;;;;;;;15.80;100.00;99065.72;8232531;28;20501;-73
2022/08/21 12:00:54;;;;;;;8.50;4.43;;;;;;;15.75;100.00;99067.88;8294521;28;20060;-74
2022/08/21 12:04:58;;;;;;;13.02;5.72;;;;;;;15.79;100.00;99068.78;8251428;28;20076;-74
2022/08/21 12:09:07;;;;;;;7.70;4.45;;;;;;;15.78;100.00;99067.19;8251175;28;20590;-74
2022/08/21 12:13:23;;;;;;;11.50;5.07;;;;;;;15.84;100.00;99071.25;8315210;28;20076;-74
2022/08/21 12:17:38;;;;;;;11.75;5.30;;;;;;;15.93;100.00;99080.06;8327440;28;20049;-74
2022/08/21 12:21:50;;;;;;;7.90;5.20;;;;;;;15.97;100.00;99078.25;8321861;28;20686;-75
2022/08/21 12:26:11;;;;;;;10.40;4.93;;;;;;;15.98;100.00;99082.56;8320925;28;20082;-74
2022/08/21 12:30:34;;;;;;;11.20;5.63;;;;;;;16.00;100.00;99096.63;8357614;28;20053;-74
2022/08/21 12:34:40;;;;;;;10.07;5.03;;;;;;;15.96;100.00;99090.31;8359809;28;20057;-74
2022/08/21 12:38:50;;;;;;;8.55;5.00;;;;;;;15.88;100.00;99088.50;8382965;28;20052;-75
2022/08/21 12:42:53;;;;;;;9.55;5.55;;;;;;;15.89;100.00;99079.19;8429859;28;20048;-74
2022/08/21 12:47:02;;;;;;;12.30;5.40;;;;;;;15.86;100.00;99074.44;8427847;28;20054;-74
2022/08/21 12:51:16;;;;;;;8.75;5.28;;;;;;;15.85;100.00;99072.84;8439635;28;20641;-74
2022/08/21 12:55:27;;;;;;;9.60;4.97;;;;;;;15.87;100.00;99081.44;8445895;28;20143;-74
2022/08/21 12:59:29;;;;;;;9.27;5.07;;;;;;;15.86;100.00;99079.88;8436253;28;20032;-74
2022/08/21 13:03:32;;;;;;;10.50;5.28;;;;;;;15.88;100.00;99067.50;8407655;28;20553;-74
2022/08/21 13:07:38;;;;;;;11.80;5.43;;;;;;;15.96;100.00;99073.97;8436257;28;20549;-74
2022/08/21 13:11:40;;;;;;;11.98;6.40;;;;;;;15.91;100.00;99077.72;8449173;28;20091;-74
2022/08/21 13:15:42;;;;;;;11.65;6.10;;;;;;;15.95;100.00;99066.91;8463231;28;20074;-74
2022/08/21 13:19:59;;;;;;;13.10;6.90;;;;;;;15.93;100.00;99069.19;8462864;28;21049;-74
2022/08/21 13:24:15;;;;;;;11.23;6.32;;;;;;;15.97;100.00;99070.88;8463024;28;20071;-73
2022/08/21 13:28:17;;;;;;;10.70;6.57;;;;;;;16.01;100.00;99071.00;8462708;28;20131;-74
2022/08/21 13:32:23;;;;;;;11.50;6.50;;;;;;;16.05;100.00;99071.88;8462745;28;20483;-74
2022/08/21 13:36:28;;;;;;;9.90;7.05;;;;;;;16.09;100.00;99077.41;8462541;28;20411;-74
2022/08/21 13:40:44;;;;;;;13.60;6.85;;;;;;;16.09;100.00;99083.66;8426315;28;20576;-74
2022/08/21 13:44:49;;;;;;;12.43;7.70;;;;;;;16.13;100.00;99084.56;8462187;28;20487;-74
2022/08/21 13:49:07;;;;;;;11.27;7.55;;;;;;;16.17;100.00;99080.03;8461055;28;20044;-74
2022/08/21 13:53:44;;;;;;;16.85;7.68;;;;;;;16.17;100.00;99085.47;8460688;28;20064;-74
2022/08/21 13:57:45;;;;;;;15.15;7.35;;;;;;;16.23;100.00;99083.28;8461863;28;20483;-74
2022/08/21 14:02:16;;;;;;;12.48;7.65;;;;;;;16.30;100.00;99083.47;8461799;28;20104;-74
2022/08/21 14:06:23;;;;;;;10.30;6.90;;;;;;;16.33;100.00;99078.16;8462127;28;20036;-74
2022/08/21 14:10:27;;;;;;;10.23;6.57;;;;;;;16.39;100.00;99076.72;8461971;28;20471;-74
2022/08/21 14:14:33;;;;;;;11.23;6.68;;;;;;;16.42;100.00;99073.31;8466248;28;20127;-74
2022/08/21 14:18:47;;;;;;;16.17;6.75;;;;;;;16.51;100.00;99077.81;8396955;28;20049;-74
2022/08/21 14:22:48;;;;;;;13.60;6.95;;;;;;;16.53;100.00;99075.56;8363624;28;20053;-74
2022/08/21 14:27:12;;;;;;;14.38;7.00;;;;;;;16.55;100.00;99074.03;8381033;28;20102;-74
2022/08/21 14:31:17;;;;;;;10.85;7.00;;;;;;;16.59;100.00;99074.19;8366321;28;20496;-74
2022/08/21 14:35:20;;;;;;;11.60;7.38;;;;;;;16.66;100.00;99079.81;8366314;28;20095;-73
2022/08/21 14:39:22;;;;;;;10.50;6.97;;;;;;;16.70;100.00;99075.28;8363685;28;20131;-74
2022/08/21 14:43:23;;;;;;;11.93;7.30;;;;;;;16.72;100.00;99078.41;8363310;28;20064;-74
2022/08/21 14:47:24;;;;;;;9.90;6.53;;;;;;;16.72;100.00;99086.59;8345917;28;20084;-73
2022/08/21 14:51:26;;;;;;;12.55;6.68;;;;;;;16.76;100.00;99084.78;8363167;28;20053;-73
2022/08/21 14:55:30;;;;;;;13.57;6.65;;;;;;;16.82;100.00;99086.09;8374704;28;20072;-74
2022/08/21 14:59:32;;;;;;;14.80;6.70;;;;;;;16.85;100.00;99088.13;8436852;28;20044;-72
2022/08/21 15:03:34;;;;;;;11.07;6.40;;;;;;;16.84;100.00;99086.53;8451831;28;20128;-73
2022/08/21 15:07:35;;;;;;;9.07;6.45;;;;;;;16.83;100.00;99084.94;8465857;28;20046;-74
2022/08/21 15:11:36;;;;;;;13.57;7.35;;;;;;;16.82;100.00;99080.63;8439499;28;20068;-73
2022/08/21 15:15:43;;;;;;;13.25;6.95;;;;;;;16.84;100.00;99086.53;8410882;28;20059;-74
2022/08/21 15:19:51;;;;;;;13.57;6.93;;;;;;;16.86;100.00;99089.72;8419430;28;20123;-74
2022/08/21 15:23:54;;;;;;;9.90;7.07;;;;;;;16.89;100.00;99086.28;8354497;28;20067;-74
2022/08/21 15:27:56;;;;;;;14.77;7.75;;;;;;;16.89;100.00;99089.00;8418204;28;20534;-75
2022/08/21 15:32:03;;;;;;;11.25;7.45;;;;;;;16.88;100.00;99092.88;8407154;28;20487;-74
2022/08/21 15:36:06;;;;;;;;;;;;;;;16.90;100.00;99090.59;8402913;28;20070;-74
2022/08/21 15:40:07;;;;;;;12.00;8.88;;;;;;;16.85;100.00;99082.69;8409703;28;19921;-75
2022/08/21 15:44:11;;;;;;;15.63;8.73;;;;;;;16.85;100.00;99090.84;8408984;28;20064;-76
2022/08/21 15:48:12;;;;;;;13.32;9.70;;;;;;;16.86;100.00;99089.72;8429635;28;20044;-76
2022/08/21 15:52:15;;;;;;;12.82;8.80;;;;;;;16.86;100.00;99095.19;8411182;28;20048;-75
2022/08/21 15:56:25;;;;;;;14.05;9.35;;;;;;;16.83;100.00;99090.41;8430229;28;20052;-76
2022/08/21 16:00:27;;;;;;;15.40;9.70;;;;;;;16.80;100.00;99091.91;8394346;28;20097;-76
2022/08/21 16:04:28;;;;;;;11.90;9.27;;;;;;;16.83;100.00;99098.59;8429666;28;20109;-76
2022/08/21 16:08:30;;;;;;;12.90;9.98;;;;;;;16.78;100.00;99093.38;8402215;28;20671;-75
2022/08/21 16:12:33;;;;;;;16.95;9.63;;;;;;;16.82;100.00;99095.06;8424904;28;20146;-76
2022/08/21 16:16:37;;;;;;;16.02;8.93;;;;;;;16.84;100.00;99092.00;8428272;28;20147;-75
2022/08/21 16:20:38;;;;;;;16.30;8.88;;;;;;;16.83;100.00;99088.47;8429884;28;20043;-76
2022/08/21 16:24:40;;;;;;;15.57;9.75;;;;;;;16.83;100.00;99093.13;8429137;28;20047;-76
2022/08/21 16:28:41;;;;;;;14.70;9.15;;;;;;;16.81;100.00;99084.53;8428236;28;20031;-75
2022/08/21 16:32:43;;;;;;;11.27;8.32;;;;;;;16.81;100.00;99098.16;8428122;28;20036;-75
2022/08/21 16:36:44;;;;;;;11.95;8.10;;;;;;;16.83;100.00;99095.84;8414001;28;20056;-75
2022/08/21 16:40:46;;;;;;;15.40;8.30;;;;;;;16.85;100.00;99088.13;8427777;28;20396;-75
2022/08/21 16:45:07;;;;;;;10.98;7.88;;;;;;;16.83;100.00;99095.84;8428520;28;20036;-75
2022/08/21 16:49:08;;;;;;;9.95;7.13;;;;;;;16.82;100.00;99094.25;8390621;28;20154;-75
2022/08/21 16:53:10;;;;;;;10.95;6.28;;;;;;;16.81;100.00;99103.63;8390844;28;20065;-75
2022/08/21 16:57:11;;;;;;;10.20;5.47;;;;;;;16.77;100.00;99108.16;8390679;28;20126;-75
2022/08/21 17:01:18;;;;;;;6.45;4.72;;;;;;;16.76;100.00;99112.06;8391069;28;20067;-76
2022/08/21 17:05:19;;;;;;;9.43;4.75;;;;;;;16.73;100.00;99110.81;8393252;28;20044;-75
2022/08/21 17:09:23;;;;;;;8.07;5.28;;;;;;;16.67;100.00;99119.56;8395552;28;20060;-74
2022/08/21 17:13:26;;;;;;;6.78;3.70;;;;;;;16.65;100.00;99116.44;8391477;28;20052;-75
2022/08/21 17:17:26;;;;;;;5.70;3.50;;;;;;;16.59;100.00;99134.16;8398884;28;20044;-75
2022/08/21 17:21:28;;;;;;;6.18;3.50;;;;;;;16.50;100.00;99130.78;8398675;28;20055;-75
2022/08/21 17:25:30;;;;;;;7.32;3.70;;;;;;;16.40;100.00;99132.84;8412870;28;20151;-74
2022/08/21 17:29:36;;;;;;;8.07;3.30;;;;;;;16.40;100.00;99126.59;8427648;28;20031;-73
2022/08/21 17:33:49;;;;;;;7.07;3.70;;;;;;;16.37;100.00;99133.53;8427601;28;20051;-75
2022/08/21 17:37:53;;;;;;;5.95;2.85;;;;;;;16.34;100.00;99134.22;8417230;28;20043;-73
2022/08/21 17:41:55;;;;;;;6.10;3.53;;;;;;;16.21;100.00;99140.84;8425246;28;20094;-74
2022/08/21 17:45:59;;;;;;;5.20;3.30;;;;;;;16.13;100.00;99138.25;8419198;28;20128;-74
2022/08/21 17:50:00;;;;;;;8.63;3.40;;;;;;;16.05;100.00;99142.72;8421800;28;20116;-74
2022/08/21 17:54:02;;;;;;;13.40;2.95;;;;;;;15.97;100.00;99143.63;8424902;28;20060;-74
2022/08/21 17:58:03;;;;;;;6.95;3.00;;;;;;;15.90;100.00;99135.25;8427524;28;20535;-74
2022/08/21 18:02:05;;;;;;;3.88;2.67;;;;;;;15.84;100.00;99136.59;8428059;28;20138;-74
2022/08/21 18:06:08;;;;;;;4.75;3.10;;;;;;;15.82;100.00;99134.22;8425325;28;20043;-74
2022/08/21 18:10:13;;;;;;;6.10;3.25;;;;;;;15.81;100.00;99148.19;8426891;28;20075;-74
2022/08/21 18:14:15;;;;;;;6.72;3.05;;;;;;;15.77;100.00;99136.38;8425890;28;20055;-74
2022/08/21 18:18:17;;;;;;;5.03;3.17;;;;;;;15.73;100.00;99140.94;8426154;28;20040;-72
2022/08/21 18:22:18;;;;;;;3.75;3.08;;;;;;;15.72;100.00;99137.41;8424037;28;20051;-72
2022/08/21 18:26:26;;;;;;;6.38;3.35;;;;;;;15.69;100.00;99145.47;8423096;28;20138;-72
2022/08/21 18:30:30;;;;;;;5.53;3.17;;;;;;;15.61;100.00;99145.25;8412645;28;20060;-72
2022/08/21 18:34:38;;;;;;;7.13;3.00;;;;;;;15.62;100.00;99146.84;8424096;28;20475;-72
2022/08/21 18:38:39;;;;;;;5.33;3.70;;;;;;;15.55;100.00;99141.16;8423642;28;20483;-72
2022/08/21 18:42:45;;;;;;;5.97;3.33;;;;;;;15.58;100.00;99140.50;8425256;28;20381;-72
2022/08/21 18:46:58;;;;;;;5.95;3.67;;;;;;;15.59;100.00;99147.53;8426042;28;20091;-72
2022/08/21 18:51:00;;;;;;;10.80;4.00;;;;;;;15.55;100.00;99146.59;8423910;28;20105;-72
2022/08/21 18:55:01;;;;;;;12.45;4.18;;;;;;;15.57;100.00;99138.09;8424697;28;20048;-72
2022/08/21 18:59:05;;;;;;;6.70;3.63;;;;;;;15.62;100.00;99146.03;8425285;28;20055;-72
2022/08/21 19:03:06;;;;;;;10.27;3.72;;;;;;;15.60;100.00;99143.66;8407210;28;20036;-72
2022/08/21 19:07:08;;;;;;;8.98;3.83;;;;;;;15.59;100.00;99147.53;8429515;28;20399;-72
2022/08/21 19:11:09;;;;;;;7.07;3.97;;;;;;;15.61;100.00;99145.25;8407695;28;20110;-72
2022/08/21 19:15:14;;;;;;;6.50;3.33;;;;;;;15.65;100.00;99155.47;8424801;28;20055;-72
2022/08/21 19:19:16;;;;;;;11.68;3.95;;;;;;;15.71;100.00;99156.81;8427877;28;20044;-72
2022/08/21 19:23:19;;;;;;;7.70;4.28;;;;;;;15.66;100.00;99151.59;8427915;28;20035;-72
2022/08/21 19:27:22;;;;;;;8.50;4.40;;;;;;;15.63;100.00;99153.88;8428885;28;20096;-72
2022/08/21 19:31:29;;;;;;;9.98;4.07;;;;;;;15.59;100.00;99152.19;8406327;28;20427;-71
2022/08/21 19:35:30;;;;;;;10.90;3.97;;;;;;;15.56;100.00;99148.19;8426311;28;20158;-71
2022/08/21 19:39:34;;;;;;;8.82;3.80;;;;;;;15.57;100.00;99144.34;8429317;28;20043;-72
2022/08/21 19:43:49;;;;;;;5.20;3.92;;;;;;;15.55;100.00;99152.03;8426844;28;20044;-72
2022/08/21 19:47:50;;;;;;;9.55;3.88;;;;;;;15.54;100.00;99145.03;8386408;28;20048;-72
2022/08/21 19:51:52;;;;;;;7.88;3.63;;;;;;;15.55;100.00;99154.75;8390911;28;20091;-72
2022/08/21 19:55:54;;;;;;;6.35;3.75;;;;;;;15.53;100.00;99154.31;8387898;28;20052;-72
2022/08/21 19:59:55;;;;;;;8.40;4.00;;;;;;;15.54;100.00;99144.25;8390715;28;20142;-71
2022/08/21 20:03:56;;;;;;;5.40;3.30;;;;;;;15.50;100.00;99144.06;8390766;28;20052;-72
2022/08/21 20:07:57;;;;;;;7.03;3.58;;;;;;;15.53;100.00;99148.88;8391026;28;20052;-74
2022/08/21 20:12:03;;;;;;;5.13;3.33;;;;;;;15.52;100.00;99152.75;8356282;28;20813;-71
2022/08/21 20:16:06;;;;;;;5.35;3.38;;;;;;;15.50;100.00;99149.53;8353941;28;20036;-72
2022/08/21 20:20:08;;;;;;;10.05;3.60;;;;;;;15.54;100.00;99149.69;8427992;28;20040;-72
2022/08/21 20:24:10;;;;;;;6.20;3.47;;;;;;;15.52;100.00;99152.75;8428439;28;20067;-71
2022/08/21 20:28:14;;;;;;;6.53;3.90;;;;;;;15.53;100.00;99148.88;8406770;28;20055;-73
2022/08/21 20:32:16;;;;;;;6.43;4.00;;;;;;;15.48;100.00;99146.38;8389944;28;20051;-73
2022/08/21 20:36:18;;;;;;;8.98;4.63;;;;;;;15.48;100.00;99151.81;8425791;28;20518;-72
2022/08/21 20:40:19;;;;;;;9.48;5.00;;;;;;;15.50;100.00;99152.25;8421450;28;20068;-73
2022/08/21 20:44:21;;;;;;;6.97;5.38;;;;;;;15.50;100.00;99160.41;8431668;28;20040;-72
2022/08/21 20:48:27;;;;;;;11.15;5.78;;;;;;;15.51;100.00;99153.03;8435648;28;20036;-72
2022/08/21 20:52:32;;;;;;;7.25;5.90;;;;;;;15.52;100.00;99147.28;8438018;28;20056;-72
2022/08/21 20:56:57;;;;;;;10.60;5.70;;;;;;;15.55;100.00;99141.16;8420412;28;20170;-72
2022/08/21 21:01:03;;;;;;;12.95;5.45;;;;;;;15.51;100.00;99145.69;8406225;28;20044;-72
2022/08/21 21:05:14;;;;;;;7.78;5.90;;;;;;;15.51;100.00;99142.16;8423554;28;20089;-72
2022/08/21 21:09:26;;;;;;;9.10;5.40;;;;;;;15.47;100.00;99139.31;8426092;28;20442;-72